sensor_id;sensor_type;location;lat;lon;timestamp;temperature;humidity
22645;DHT22;11489;50.834;6.752;2023-11-21T00:01:02;8.70;97.40
22645;DHT22;11489;50.834;6.752;2023-11-21T00:03:30;8.70;97.30
22645;DHT22;11489;50.834;6.752;2023-11-21T00:05:56;8.70;97.40
22645;DHT22;11489;50.834;6.752;2023-11-21T00:08:21;8.70;97.40
22645;DHT22;11489;50.834;6.752;2023-11-21T00:10:47;8.70;97.40
22645;DHT22;11489;50.834;6.752;2023-11-21T00:13:14;8.70;97.40
22645;DHT22;11489;50.834;6.752;2023-11-21T00:15:39;8.70;97.40
22645;DHT22;11489;50.834;6.752;2023-11-21T00:18:06;8.80;97.40
22645;DHT22;11489;50.834;6.752;2023-11-21T00:20:32;8.80;97.40
22645;DHT22;11489;50.834;6.752;2023-11-21T00:22:57;8.80;97.40
22645;DHT22;11489;50.834;6.752;2023-11-21T00:25:24;8.80;97.40
22645;DHT22;11489;50.834;6.752;2023-11-21T00:27:50;8.80;97.40
22645;DHT22;11489;50.834;6.752;2023-11-21T00:30:16;8.80;97.40
22645;DHT22;11489;50.834;6.752;2023-11-21T00:32:41;8.80;97.40
22645;DHT22;11489;50.834;6.752;2023-11-21T00:35:07;8.80;97.40
22645;DHT22;11489;50.834;6.752;2023-11-21T00:37:33;8.80;97.40
22645;DHT22;11489;50.834;6.752;2023-11-21T00:39:59;8.80;97.40
22645;DHT22;11489;50.834;6.752;2023-11-21T00:42:24;8.80;97.40
22645;DHT22;11489;50.834;6.752;2023-11-21T00:44:50;8.90;97.40
22645;DHT22;11489;50.834;6.752;2023-11-21T00:47:16;8.80;97.30
22645;DHT22;11489;50.834;6.752;2023-11-21T00:49:42;8.80;97.30
22645;DHT22;11489;50.834;6.752;2023-11-21T00:52:08;8.80;97.30
22645;DHT22;11489;50.834;6.752;2023-11-21T00:54:33;8.80;97.30
22645;DHT22;11489;50.834;6.752;2023-11-21T00:56:59;8.80;97.30
22645;DHT22;11489;50.834;6.752;2023-11-21T00:59:25;8.80;97.30
22645;DHT22;11489;50.834;6.752;2023-11-21T01:01:50;8.80;97.30
22645;DHT22;11489;50.834;6.752;2023-11-21T01:04:16;8.80;97.30
22645;DHT22;11489;50.834;6.752;2023-11-21T01:06:42;8.80;97.30
22645;DHT22;11489;50.834;6.752;2023-11-21T01:09:08;8.80;97.30
22645;DHT22;11489;50.834;6.752;2023-11-21T01:11:36;8.80;97.30
22645;DHT22;11489;50.834;6.752;2023-11-21T01:14:06;8.80;97.40
22645;DHT22;11489;50.834;6.752;2023-11-21T01:16:34;8.80;97.30
22645;DHT22;11489;50.834;6.752;2023-11-21T01:19:00;8.80;97.30
22645;DHT22;11489;50.834;6.752;2023-11-21T01:21:26;8.80;97.30
22645;DHT22;11489;50.834;6.752;2023-11-21T01:23:53;8.80;97.30
22645;DHT22;11489;50.834;6.752;2023-11-21T01:26:20;8.80;97.30
22645;DHT22;11489;50.834;6.752;2023-11-21T01:28:46;8.80;97.30
22645;DHT22;11489;50.834;6.752;2023-11-21T01:31:14;8.80;97.30
22645;DHT22;11489;50.834;6.752;2023-11-21T01:33:40;8.80;97.30
22645;DHT22;11489;50.834;6.752;2023-11-21T01:36:06;8.80;97.30
22645;DHT22;11489;50.834;6.752;2023-11-21T01:38:32;8.80;97.30
22645;DHT22;11489;50.834;6.752;2023-11-21T01:40:58;8.80;97.40
22645;DHT22;11489;50.834;6.752;2023-11-21T01:43:26;8.80;97.40
22645;DHT22;11489;50.834;6.752;2023-11-21T01:45:55;8.80;97.40
22645;DHT22;11489;50.834;6.752;2023-11-21T01:48:25;8.80;97.40
22645;DHT22;11489;50.834;6.752;2023-11-21T01:50:51;8.80;97.40
22645;DHT22;11489;50.834;6.752;2023-11-21T01:53:17;8.70;97.30
22645;DHT22;11489;50.834;6.752;2023-11-21T01:55:45;8.80;97.30
22645;DHT22;11489;50.834;6.752;2023-11-21T01:58:11;8.80;97.30
22645;DHT22;11489;50.834;6.752;2023-11-21T02:00:38;8.80;97.60
22645;DHT22;11489;50.834;6.752;2023-11-21T02:03:04;8.80;97.30
22645;DHT22;11489;50.834;6.752;2023-11-21T02:05:30;8.70;97.30
22645;DHT22;11489;50.834;6.752;2023-11-21T02:07:55;8.70;97.20
22645;DHT22;11489;50.834;6.752;2023-11-21T02:10:22;8.70;97.20
22645;DHT22;11489;50.834;6.752;2023-11-21T02:12:50;8.70;97.20
22645;DHT22;11489;50.834;6.752;2023-11-21T02:15:17;8.70;97.10
22645;DHT22;11489;50.834;6.752;2023-11-21T02:17:50;8.60;97.10
22645;DHT22;11489;50.834;6.752;2023-11-21T02:20:20;8.60;97.00
22645;DHT22;11489;50.834;6.752;2023-11-21T02:22:56;8.60;97.00
22645;DHT22;11489;50.834;6.752;2023-11-21T02:25:26;8.50;97.00
22645;DHT22;11489;50.834;6.752;2023-11-21T02:28:02;8.50;97.10
22645;DHT22;11489;50.834;6.752;2023-11-21T02:30:28;8.50;97.10
22645;DHT22;11489;50.834;6.752;2023-11-21T02:32:54;8.40;97.10
22645;DHT22;11489;50.834;6.752;2023-11-21T02:35:20;8.40;97.20
22645;DHT22;11489;50.834;6.752;2023-11-21T02:37:51;8.40;97.20
22645;DHT22;11489;50.834;6.752;2023-11-21T02:40:17;8.40;97.20
22645;DHT22;11489;50.834;6.752;2023-11-21T02:42:46;8.40;97.20
22645;DHT22;11489;50.834;6.752;2023-11-21T02:45:14;8.40;97.30
22645;DHT22;11489;50.834;6.752;2023-11-21T02:47:42;8.40;97.30
22645;DHT22;11489;50.834;6.752;2023-11-21T02:50:08;8.40;97.30
22645;DHT22;11489;50.834;6.752;2023-11-21T02:52:35;8.40;97.30
22645;DHT22;11489;50.834;6.752;2023-11-21T02:55:01;8.40;97.30
22645;DHT22;11489;50.834;6.752;2023-11-21T02:57:27;8.40;97.30
22645;DHT22;11489;50.834;6.752;2023-11-21T02:59:53;8.40;97.30
22645;DHT22;11489;50.834;6.752;2023-11-21T03:02:18;8.40;97.30
22645;DHT22;11489;50.834;6.752;2023-11-21T03:04:44;8.40;97.30
22645;DHT22;11489;50.834;6.752;2023-11-21T03:07:10;8.40;97.40
22645;DHT22;11489;50.834;6.752;2023-11-21T03:09:35;8.40;97.40
22645;DHT22;11489;50.834;6.752;2023-11-21T03:12:01;8.40;97.30
22645;DHT22;11489;50.834;6.752;2023-11-21T03:14:27;8.40;97.30
22645;DHT22;11489;50.834;6.752;2023-11-21T03:16:53;8.40;97.40
22645;DHT22;11489;50.834;6.752;2023-11-21T03:19:18;8.40;97.30
22645;DHT22;11489;50.834;6.752;2023-11-21T03:21:44;8.40;97.30
22645;DHT22;11489;50.834;6.752;2023-11-21T03:24:10;8.40;97.30
22645;DHT22;11489;50.834;6.752;2023-11-21T03:26:35;8.40;97.30
22645;DHT22;11489;50.834;6.752;2023-11-21T03:29:03;8.40;97.30
22645;DHT22;11489;50.834;6.752;2023-11-21T03:31:30;8.50;97.30
22645;DHT22;11489;50.834;6.752;2023-11-21T03:33:56;8.50;97.30
22645;DHT22;11489;50.834;6.752;2023-11-21T03:36:22;8.50;97.30
22645;DHT22;11489;50.834;6.752;2023-11-21T03:38:48;8.40;97.30
22645;DHT22;11489;50.834;6.752;2023-11-21T03:41:15;8.50;97.30
22645;DHT22;11489;50.834;6.752;2023-11-21T03:43:41;8.50;97.20
22645;DHT22;11489;50.834;6.752;2023-11-21T03:46:06;8.40;97.20
22645;DHT22;11489;50.834;6.752;2023-11-21T03:48:32;8.40;97.20
22645;DHT22;11489;50.834;6.752;2023-11-21T03:50:58;8.40;97.20
22645;DHT22;11489;50.834;6.752;2023-11-21T03:53:24;8.40;97.20
22645;DHT22;11489;50.834;6.752;2023-11-21T03:55:50;8.40;97.20
22645;DHT22;11489;50.834;6.752;2023-11-21T03:58:15;8.40;97.20
22645;DHT22;11489;50.834;6.752;2023-11-21T04:00:41;8.40;97.20
22645;DHT22;11489;50.834;6.752;2023-11-21T04:03:07;8.40;97.20
22645;DHT22;11489;50.834;6.752;2023-11-21T04:05:32;8.40;97.20
22645;DHT22;11489;50.834;6.752;2023-11-21T04:07:58;8.40;97.20
22645;DHT22;11489;50.834;6.752;2023-11-21T04:10:23;8.30;97.20
22645;DHT22;11489;50.834;6.752;2023-11-21T04:12:49;8.30;97.20
22645;DHT22;11489;50.834;6.752;2023-11-21T04:15:15;8.30;97.20
22645;DHT22;11489;50.834;6.752;2023-11-21T04:17:41;8.30;97.20
22645;DHT22;11489;50.834;6.752;2023-11-21T04:20:08;8.30;97.20
22645;DHT22;11489;50.834;6.752;2023-11-21T04:22:42;8.30;97.30
22645;DHT22;11489;50.834;6.752;2023-11-21T04:25:10;8.30;97.30
22645;DHT22;11489;50.834;6.752;2023-11-21T04:27:38;8.30;97.30
22645;DHT22;11489;50.834;6.752;2023-11-21T04:30:04;8.30;97.30
22645;DHT22;11489;50.834;6.752;2023-11-21T04:32:30;8.30;97.30
22645;DHT22;11489;50.834;6.752;2023-11-21T04:34:56;8.40;97.40
22645;DHT22;11489;50.834;6.752;2023-11-21T04:37:21;8.40;97.30
22645;DHT22;11489;50.834;6.752;2023-11-21T04:39:48;8.40;97.30
22645;DHT22;11489;50.834;6.752;2023-11-21T04:42:13;8.40;97.30
22645;DHT22;11489;50.834;6.752;2023-11-21T04:44:39;8.40;97.30
22645;DHT22;11489;50.834;6.752;2023-11-21T04:47:07;8.40;97.30
22645;DHT22;11489;50.834;6.752;2023-11-21T04:49:33;8.40;97.20
22645;DHT22;11489;50.834;6.752;2023-11-21T04:51:59;8.40;97.20
22645;DHT22;11489;50.834;6.752;2023-11-21T04:54:25;8.40;97.20
22645;DHT22;11489;50.834;6.752;2023-11-21T04:56:50;8.40;97.20
22645;DHT22;11489;50.834;6.752;2023-11-21T04:59:16;8.30;97.10
22645;DHT22;11489;50.834;6.752;2023-11-21T05:01:41;8.30;97.10
22645;DHT22;11489;50.834;6.752;2023-11-21T05:04:07;8.30;97.30
22645;DHT22;11489;50.834;6.752;2023-11-21T05:06:34;8.30;97.00
22645;DHT22;11489;50.834;6.752;2023-11-21T05:09:00;8.30;96.90
22645;DHT22;11489;50.834;6.752;2023-11-21T05:11:26;8.30;96.90
22645;DHT22;11489;50.834;6.752;2023-11-21T05:13:52;8.20;96.80
22645;DHT22;11489;50.834;6.752;2023-11-21T05:16:19;8.20;96.80
22645;DHT22;11489;50.834;6.752;2023-11-21T05:18:45;8.20;96.80
22645;DHT22;11489;50.834;6.752;2023-11-21T05:21:11;8.10;96.70
22645;DHT22;11489;50.834;6.752;2023-11-21T05:23:36;8.10;96.70
22645;DHT22;11489;50.834;6.752;2023-11-21T05:26:03;8.10;96.80
22645;DHT22;11489;50.834;6.752;2023-11-21T05:28:29;8.10;96.80
22645;DHT22;11489;50.834;6.752;2023-11-21T05:30:54;8.00;96.80
22645;DHT22;11489;50.834;6.752;2023-11-21T05:33:20;8.00;96.80
22645;DHT22;11489;50.834;6.752;2023-11-21T05:35:46;8.00;96.90
22645;DHT22;11489;50.834;6.752;2023-11-21T05:38:14;8.00;96.90
22645;DHT22;11489;50.834;6.752;2023-11-21T05:40:40;7.90;96.90
22645;DHT22;11489;50.834;6.752;2023-11-21T05:43:06;7.90;96.90
22645;DHT22;11489;50.834;6.752;2023-11-21T05:45:32;7.90;96.90
22645;DHT22;11489;50.834;6.752;2023-11-21T05:47:58;7.90;97.00
22645;DHT22;11489;50.834;6.752;2023-11-21T05:50:24;7.90;97.00
22645;DHT22;11489;50.834;6.752;2023-11-21T05:52:49;7.90;97.00
22645;DHT22;11489;50.834;6.752;2023-11-21T05:55:15;7.90;97.00
22645;DHT22;11489;50.834;6.752;2023-11-21T05:57:42;7.90;97.00
22645;DHT22;11489;50.834;6.752;2023-11-21T06:00:11;7.90;97.10
22645;DHT22;11489;50.834;6.752;2023-11-21T06:02:39;7.90;97.10
22645;DHT22;11489;50.834;6.752;2023-11-21T06:05:06;7.90;97.10
22645;DHT22;11489;50.834;6.752;2023-11-21T06:07:32;7.90;97.10
22645;DHT22;11489;50.834;6.752;2023-11-21T06:09:58;7.90;97.10
22645;DHT22;11489;50.834;6.752;2023-11-21T06:12:23;7.90;97.20
22645;DHT22;11489;50.834;6.752;2023-11-21T06:14:49;7.90;97.20
22645;DHT22;11489;50.834;6.752;2023-11-21T06:17:15;7.90;97.20
22645;DHT22;11489;50.834;6.752;2023-11-21T06:19:40;7.90;97.30
22645;DHT22;11489;50.834;6.752;2023-11-21T06:22:06;7.90;97.30
22645;DHT22;11489;50.834;6.752;2023-11-21T06:24:32;7.90;97.30
22645;DHT22;11489;50.834;6.752;2023-11-21T06:26:57;8.00;97.30
22645;DHT22;11489;50.834;6.752;2023-11-21T06:29:24;8.00;97.30
22645;DHT22;11489;50.834;6.752;2023-11-21T06:31:49;8.00;97.40
22645;DHT22;11489;50.834;6.752;2023-11-21T06:34:15;8.00;97.40
22645;DHT22;11489;50.834;6.752;2023-11-21T06:36:41;8.00;97.40
22645;DHT22;11489;50.834;6.752;2023-11-21T06:39:06;8.00;97.40
22645;DHT22;11489;50.834;6.752;2023-11-21T06:41:33;8.00;97.40
22645;DHT22;11489;50.834;6.752;2023-11-21T06:43:59;8.10;97.40
22645;DHT22;11489;50.834;6.752;2023-11-21T06:46:25;8.10;97.40
22645;DHT22;11489;50.834;6.752;2023-11-21T06:48:50;8.10;97.40
22645;DHT22;11489;50.834;6.752;2023-11-21T06:51:16;8.10;97.50
22645;DHT22;11489;50.834;6.752;2023-11-21T06:53:42;8.10;97.50
22645;DHT22;11489;50.834;6.752;2023-11-21T06:56:19;8.20;97.50
22645;DHT22;11489;50.834;6.752;2023-11-21T06:58:45;8.20;97.50
22645;DHT22;11489;50.834;6.752;2023-11-21T07:01:15;8.20;97.50
22645;DHT22;11489;50.834;6.752;2023-11-21T07:03:41;8.30;97.50
22645;DHT22;11489;50.834;6.752;2023-11-21T07:06:07;8.30;97.50
22645;DHT22;11489;50.834;6.752;2023-11-21T07:08:36;8.30;97.50
22645;DHT22;11489;50.834;6.752;2023-11-21T07:11:02;8.30;97.50
22645;DHT22;11489;50.834;6.752;2023-11-21T07:13:28;8.30;97.50
22645;DHT22;11489;50.834;6.752;2023-11-21T07:15:54;8.40;97.60
22645;DHT22;11489;50.834;6.752;2023-11-21T07:18:20;8.40;97.60
22645;DHT22;11489;50.834;6.752;2023-11-21T07:20:46;8.40;97.60
22645;DHT22;11489;50.834;6.752;2023-11-21T07:23:11;8.50;97.60
22645;DHT22;11489;50.834;6.752;2023-11-21T07:25:37;8.50;97.60
22645;DHT22;11489;50.834;6.752;2023-11-21T07:28:03;8.50;97.60
22645;DHT22;11489;50.834;6.752;2023-11-21T07:30:30;8.50;97.60
22645;DHT22;11489;50.834;6.752;2023-11-21T07:32:56;8.50;97.60
22645;DHT22;11489;50.834;6.752;2023-11-21T07:35:22;8.60;97.60
22645;DHT22;11489;50.834;6.752;2023-11-21T07:37:47;8.60;97.60
22645;DHT22;11489;50.834;6.752;2023-11-21T07:40:14;8.60;97.70
22645;DHT22;11489;50.834;6.752;2023-11-21T07:42:41;8.70;97.70
22645;DHT22;11489;50.834;6.752;2023-11-21T07:45:08;8.70;97.70
22645;DHT22;11489;50.834;6.752;2023-11-21T07:47:34;8.70;97.70
22645;DHT22;11489;50.834;6.752;2023-11-21T07:50:03;8.70;97.70
22645;DHT22;11489;50.834;6.752;2023-11-21T07:52:29;8.80;97.70
22645;DHT22;11489;50.834;6.752;2023-11-21T07:54:55;8.80;97.70
22645;DHT22;11489;50.834;6.752;2023-11-21T07:57:21;8.90;97.80
22645;DHT22;11489;50.834;6.752;2023-11-21T07:59:47;8.90;97.80
22645;DHT22;11489;50.834;6.752;2023-11-21T08:02:12;8.90;97.80
22645;DHT22;11489;50.834;6.752;2023-11-21T08:04:38;9.00;97.80
22645;DHT22;11489;50.834;6.752;2023-11-21T08:07:04;9.00;97.80
22645;DHT22;11489;50.834;6.752;2023-11-21T08:09:29;9.00;97.80
22645;DHT22;11489;50.834;6.752;2023-11-21T08:11:55;9.00;97.80
22645;DHT22;11489;50.834;6.752;2023-11-21T08:14:22;9.10;97.80
22645;DHT22;11489;50.834;6.752;2023-11-21T08:16:51;9.20;97.80
22645;DHT22;11489;50.834;6.752;2023-11-21T08:19:17;9.20;97.90
22645;DHT22;11489;50.834;6.752;2023-11-21T08:21:44;9.20;97.90
22645;DHT22;11489;50.834;6.752;2023-11-21T08:24:10;9.20;97.80
22645;DHT22;11489;50.834;6.752;2023-11-21T08:26:39;9.30;97.90
22645;DHT22;11489;50.834;6.752;2023-11-21T08:29:05;9.40;97.90
22645;DHT22;11489;50.834;6.752;2023-11-21T08:31:32;9.40;97.90
22645;DHT22;11489;50.834;6.752;2023-11-21T08:33:58;9.50;97.80
22645;DHT22;11489;50.834;6.752;2023-11-21T08:36:23;9.50;97.80
22645;DHT22;11489;50.834;6.752;2023-11-21T08:38:50;9.50;97.70
22645;DHT22;11489;50.834;6.752;2023-11-21T08:41:18;9.50;97.70
22645;DHT22;11489;50.834;6.752;2023-11-21T08:43:47;9.60;97.70
22645;DHT22;11489;50.834;6.752;2023-11-21T08:46:13;9.60;97.70
22645;DHT22;11489;50.834;6.752;2023-11-21T08:48:41;9.60;97.70
22645;DHT22;11489;50.834;6.752;2023-11-21T08:51:06;9.60;97.70
22645;DHT22;11489;50.834;6.752;2023-11-21T08:53:32;9.60;97.60
22645;DHT22;11489;50.834;6.752;2023-11-21T08:55:58;9.70;97.60
22645;DHT22;11489;50.834;6.752;2023-11-21T08:58:24;9.70;97.60
22645;DHT22;11489;50.834;6.752;2023-11-21T09:00:49;9.70;97.60
22645;DHT22;11489;50.834;6.752;2023-11-21T09:03:15;9.70;97.50
22645;DHT22;11489;50.834;6.752;2023-11-21T09:05:41;9.70;97.50
22645;DHT22;11489;50.834;6.752;2023-11-21T09:08:07;9.70;97.40
22645;DHT22;11489;50.834;6.752;2023-11-21T09:10:33;9.70;97.60
22645;DHT22;11489;50.834;6.752;2023-11-21T09:13:01;9.80;97.60
22645;DHT22;11489;50.834;6.752;2023-11-21T09:15:27;9.80;97.60
22645;DHT22;11489;50.834;6.752;2023-11-21T09:17:53;9.80;97.60
22645;DHT22;11489;50.834;6.752;2023-11-21T09:20:19;9.80;97.70
22645;DHT22;11489;50.834;6.752;2023-11-21T09:22:49;9.90;97.70
22645;DHT22;11489;50.834;6.752;2023-11-21T09:25:15;9.90;97.60
22645;DHT22;11489;50.834;6.752;2023-11-21T09:27:40;9.90;97.50
22645;DHT22;11489;50.834;6.752;2023-11-21T09:30:07;9.90;97.50
22645;DHT22;11489;50.834;6.752;2023-11-21T09:32:37;10.00;97.50
22645;DHT22;11489;50.834;6.752;2023-11-21T09:35:06;10.00;97.40
22645;DHT22;11489;50.834;6.752;2023-11-21T09:37:35;10.00;97.40
22645;DHT22;11489;50.834;6.752;2023-11-21T09:40:04;10.00;97.40
22645;DHT22;11489;50.834;6.752;2023-11-21T09:42:39;10.00;97.30
22645;DHT22;11489;50.834;6.752;2023-11-21T09:45:24;10.00;97.20
22645;DHT22;11489;50.834;6.752;2023-11-21T09:47:52;10.00;97.10
22645;DHT22;11489;50.834;6.752;2023-11-21T09:50:20;10.00;97.30
22645;DHT22;11489;50.834;6.752;2023-11-21T09:55:30;10.00;97.30
22645;DHT22;11489;50.834;6.752;2023-11-21T09:58:02;10.00;97.20
22645;DHT22;11489;50.834;6.752;2023-11-21T10:00:30;10.00;97.30
22645;DHT22;11489;50.834;6.752;2023-11-21T10:02:58;10.00;97.30
22645;DHT22;11489;50.834;6.752;2023-11-21T10:05:25;10.00;97.30
22645;DHT22;11489;50.834;6.752;2023-11-21T10:07:51;10.00;97.20
22645;DHT22;11489;50.834;6.752;2023-11-21T10:10:20;10.00;97.20
22645;DHT22;11489;50.834;6.752;2023-11-21T10:12:50;10.00;97.20
22645;DHT22;11489;50.834;6.752;2023-11-21T10:15:21;10.00;97.20
22645;DHT22;11489;50.834;6.752;2023-11-21T10:17:49;10.00;97.30
22645;DHT22;11489;50.834;6.752;2023-11-21T10:20:16;10.10;97.40
22645;DHT22;11489;50.834;6.752;2023-11-21T10:22:42;10.10;97.30
22645;DHT22;11489;50.834;6.752;2023-11-21T10:25:11;10.10;97.30
22645;DHT22;11489;50.834;6.752;2023-11-21T10:27:40;10.10;97.20
22645;DHT22;11489;50.834;6.752;2023-11-21T10:30:07;10.10;97.20
22645;DHT22;11489;50.834;6.752;2023-11-21T10:32:41;10.10;97.20
22645;DHT22;11489;50.834;6.752;2023-11-21T10:35:08;10.10;97.10
22645;DHT22;11489;50.834;6.752;2023-11-21T10:37:42;10.10;97.20
22645;DHT22;11489;50.834;6.752;2023-11-21T10:40:10;10.10;97.20
22645;DHT22;11489;50.834;6.752;2023-11-21T10:42:39;10.10;97.30
22645;DHT22;11489;50.834;6.752;2023-11-21T10:45:09;10.10;97.40
22645;DHT22;11489;50.834;6.752;2023-11-21T10:47:43;10.20;97.50
22645;DHT22;11489;50.834;6.752;2023-11-21T10:50:09;10.20;97.60
22645;DHT22;11489;50.834;6.752;2023-11-21T10:52:37;10.30;97.60
22645;DHT22;11489;50.834;6.752;2023-11-21T10:55:25;10.30;97.70
22645;DHT22;11489;50.834;6.752;2023-11-21T10:57:53;10.40;97.50
22645;DHT22;11489;50.834;6.752;2023-11-21T11:00:19;10.40;97.50
22645;DHT22;11489;50.834;6.752;2023-11-21T11:02:51;10.50;97.50
22645;DHT22;11489;50.834;6.752;2023-11-21T11:05:21;10.50;97.30
22645;DHT22;11489;50.834;6.752;2023-11-21T11:08:03;10.50;97.20
22645;DHT22;11489;50.834;6.752;2023-11-21T11:10:29;10.50;97.10
22645;DHT22;11489;50.834;6.752;2023-11-21T11:12:56;10.50;97.10
22645;DHT22;11489;50.834;6.752;2023-11-21T11:15:26;10.50;97.10
22645;DHT22;11489;50.834;6.752;2023-11-21T11:17:52;10.50;97.20
22645;DHT22;11489;50.834;6.752;2023-11-21T11:20:23;10.50;97.10
22645;DHT22;11489;50.834;6.752;2023-11-21T11:28:19;10.50;97.10
22645;DHT22;11489;50.834;6.752;2023-11-21T11:33:57;10.50;97.20
22645;DHT22;11489;50.834;6.752;2023-11-21T11:36:36;10.50;96.80
22645;DHT22;11489;50.834;6.752;2023-11-21T11:39:30;10.50;97.10
22645;DHT22;11489;50.834;6.752;2023-11-21T11:41:57;10.50;96.90
22645;DHT22;11489;50.834;6.752;2023-11-21T11:47:22;10.50;97.10
22645;DHT22;11489;50.834;6.752;2023-11-21T11:52:40;10.60;97.20
22645;DHT22;11489;50.834;6.752;2023-11-21T11:55:14;10.60;97.20
22645;DHT22;11489;50.834;6.752;2023-11-21T11:57:41;10.60;97.30
22645;DHT22;11489;50.834;6.752;2023-11-21T12:00:15;10.60;97.50
22645;DHT22;11489;50.834;6.752;2023-11-21T12:02:44;10.70;97.60
22645;DHT22;11489;50.834;6.752;2023-11-21T12:05:12;10.70;97.50
22645;DHT22;11489;50.834;6.752;2023-11-21T12:07:50;10.80;97.40
22645;DHT22;11489;50.834;6.752;2023-11-21T12:10:23;10.80;97.20
22645;DHT22;11489;50.834;6.752;2023-11-21T12:12:55;10.80;97.20
22645;DHT22;11489;50.834;6.752;2023-11-21T12:15:22;10.80;97.10
22645;DHT22;11489;50.834;6.752;2023-11-21T12:17:49;10.80;97.10
22645;DHT22;11489;50.834;6.752;2023-11-21T12:20:18;10.80;97.10
22645;DHT22;11489;50.834;6.752;2023-11-21T12:22:48;10.80;97.40
22645;DHT22;11489;50.834;6.752;2023-11-21T12:25:19;10.90;97.00
22645;DHT22;11489;50.834;6.752;2023-11-21T12:27:50;10.80;96.90
22645;DHT22;11489;50.834;6.752;2023-11-21T12:30:17;10.90;97.00
22645;DHT22;11489;50.834;6.752;2023-11-21T12:32:44;10.90;97.10
22645;DHT22;11489;50.834;6.752;2023-11-21T12:35:14;10.90;97.10
22645;DHT22;11489;50.834;6.752;2023-11-21T12:37:41;10.90;97.10
22645;DHT22;11489;50.834;6.752;2023-11-21T12:40:09;10.90;97.00
22645;DHT22;11489;50.834;6.752;2023-11-21T12:42:47;10.90;97.00
22645;DHT22;11489;50.834;6.752;2023-11-21T12:47:59;10.90;97.10
22645;DHT22;11489;50.834;6.752;2023-11-21T12:50:27;10.90;97.00
22645;DHT22;11489;50.834;6.752;2023-11-21T12:53:10;11.00;97.20
22645;DHT22;11489;50.834;6.752;2023-11-21T12:55:43;11.00;97.10
22645;DHT22;11489;50.834;6.752;2023-11-21T12:58:10;11.00;97.10
22645;DHT22;11489;50.834;6.752;2023-11-21T13:00:38;11.00;97.00
22645;DHT22;11489;50.834;6.752;2023-11-21T13:03:06;11.00;97.00
22645;DHT22;11489;50.834;6.752;2023-11-21T13:05:37;11.00;97.10
22645;DHT22;11489;50.834;6.752;2023-11-21T13:08:08;11.00;97.00
22645;DHT22;11489;50.834;6.752;2023-11-21T13:10:36;11.00;97.00
22645;DHT22;11489;50.834;6.752;2023-11-21T13:13:03;11.10;97.00
22645;DHT22;11489;50.834;6.752;2023-11-21T13:15:40;11.00;96.90
22645;DHT22;11489;50.834;6.752;2023-11-21T13:18:08;11.10;96.80
22645;DHT22;11489;50.834;6.752;2023-11-21T13:20:36;11.00;96.80
22645;DHT22;11489;50.834;6.752;2023-11-21T13:23:07;11.10;96.80
22645;DHT22;11489;50.834;6.752;2023-11-21T13:25:34;11.00;96.80
22645;DHT22;11489;50.834;6.752;2023-11-21T13:28:00;11.10;97.00
22645;DHT22;11489;50.834;6.752;2023-11-21T13:30:26;11.10;97.10
22645;DHT22;11489;50.834;6.752;2023-11-21T13:32:56;11.00;97.00
22645;DHT22;11489;50.834;6.752;2023-11-21T13:35:30;11.10;97.40
22645;DHT22;11489;50.834;6.752;2023-11-21T13:38:05;11.20;97.10
22645;DHT22;11489;50.834;6.752;2023-11-21T13:40:32;11.20;97.00
22645;DHT22;11489;50.834;6.752;2023-11-21T13:43:00;11.20;97.00
22645;DHT22;11489;50.834;6.752;2023-11-21T13:45:29;11.20;97.00
22645;DHT22;11489;50.834;6.752;2023-11-21T13:47:56;11.20;96.90
22645;DHT22;11489;50.834;6.752;2023-11-21T13:50:25;11.30;96.80
22645;DHT22;11489;50.834;6.752;2023-11-21T13:52:55;11.20;96.70
22645;DHT22;11489;50.834;6.752;2023-11-21T13:55:21;11.20;96.60
22645;DHT22;11489;50.834;6.752;2023-11-21T13:57:50;11.20;96.50
22645;DHT22;11489;50.834;6.752;2023-11-21T14:00:18;11.20;96.50
22645;DHT22;11489;50.834;6.752;2023-11-21T14:03:09;11.20;96.40
22645;DHT22;11489;50.834;6.752;2023-11-21T14:05:43;11.20;96.30
22645;DHT22;11489;50.834;6.752;2023-11-21T14:08:10;11.10;96.20
22645;DHT22;11489;50.834;6.752;2023-11-21T14:10:37;11.10;96.20
22645;DHT22;11489;50.834;6.752;2023-11-21T14:13:09;11.00;96.20
22645;DHT22;11489;50.834;6.752;2023-11-21T14:15:41;11.00;96.30
22645;DHT22;11489;50.834;6.752;2023-11-21T14:18:11;10.90;96.20
22645;DHT22;11489;50.834;6.752;2023-11-21T14:20:40;10.90;96.30
22645;DHT22;11489;50.834;6.752;2023-11-21T14:23:06;10.90;96.30
22645;DHT22;11489;50.834;6.752;2023-11-21T14:25:35;10.80;96.40
22645;DHT22;11489;50.834;6.752;2023-11-21T14:28:07;10.80;96.30
22645;DHT22;11489;50.834;6.752;2023-11-21T14:30:33;10.80;96.40
22645;DHT22;11489;50.834;6.752;2023-11-21T14:33:02;10.80;96.40
22645;DHT22;11489;50.834;6.752;2023-11-21T14:35:27;10.80;96.50
22645;DHT22;11489;50.834;6.752;2023-11-21T14:37:55;10.70;96.40
22645;DHT22;11489;50.834;6.752;2023-11-21T14:40:21;10.80;96.40
22645;DHT22;11489;50.834;6.752;2023-11-21T14:42:50;10.70;96.40
22645;DHT22;11489;50.834;6.752;2023-11-21T14:45:19;10.70;96.50
22645;DHT22;11489;50.834;6.752;2023-11-21T14:47:48;10.70;96.50
22645;DHT22;11489;50.834;6.752;2023-11-21T14:50:24;10.70;96.50
22645;DHT22;11489;50.834;6.752;2023-11-21T14:53:12;10.70;96.50
22645;DHT22;11489;50.834;6.752;2023-11-21T14:55:40;10.70;96.40
22645;DHT22;11489;50.834;6.752;2023-11-21T14:58:16;10.60;96.40
22645;DHT22;11489;50.834;6.752;2023-11-21T15:00:49;10.60;96.40
22645;DHT22;11489;50.834;6.752;2023-11-21T15:03:17;10.60;96.40
22645;DHT22;11489;50.834;6.752;2023-11-21T15:06:06;10.60;96.50
22645;DHT22;11489;50.834;6.752;2023-11-21T15:08:51;10.60;96.50
22645;DHT22;11489;50.834;6.752;2023-11-21T15:11:43;10.60;96.40
22645;DHT22;11489;50.834;6.752;2023-11-21T15:14:08;10.50;96.50
22645;DHT22;11489;50.834;6.752;2023-11-21T15:16:37;10.50;96.40
22645;DHT22;11489;50.834;6.752;2023-11-21T15:19:06;10.50;96.50
22645;DHT22;11489;50.834;6.752;2023-11-21T15:21:32;10.50;96.50
22645;DHT22;11489;50.834;6.752;2023-11-21T15:23:58;10.50;96.70
22645;DHT22;11489;50.834;6.752;2023-11-21T15:26:24;10.50;96.50
22645;DHT22;11489;50.834;6.752;2023-11-21T15:28:49;10.40;96.50
22645;DHT22;11489;50.834;6.752;2023-11-21T15:31:15;10.40;96.80
22645;DHT22;11489;50.834;6.752;2023-11-21T15:33:45;10.40;96.50
22645;DHT22;11489;50.834;6.752;2023-11-21T15:36:11;10.40;96.60
22645;DHT22;11489;50.834;6.752;2023-11-21T15:38:38;10.40;96.60
22645;DHT22;11489;50.834;6.752;2023-11-21T15:41:04;10.40;96.60
22645;DHT22;11489;50.834;6.752;2023-11-21T15:43:32;10.40;96.60
22645;DHT22;11489;50.834;6.752;2023-11-21T15:45:58;10.40;96.60
22645;DHT22;11489;50.834;6.752;2023-11-21T15:48:24;10.40;96.60
22645;DHT22;11489;50.834;6.752;2023-11-21T15:50:49;10.40;96.60
22645;DHT22;11489;50.834;6.752;2023-11-21T15:53:17;10.40;96.60
22645;DHT22;11489;50.834;6.752;2023-11-21T15:55:43;10.30;96.60
22645;DHT22;11489;50.834;6.752;2023-11-21T15:58:12;10.40;96.60
22645;DHT22;11489;50.834;6.752;2023-11-21T16:00:38;10.40;96.60
22645;DHT22;11489;50.834;6.752;2023-11-21T16:03:03;10.30;96.60